Portada
METAR-TAF:

METAR-TAF

Aeroports :

St. Anthony, Terranova i Labrador, Canadà

latitud: 51-24N, longitud: 056-05W, altitud: 28 m

Observació

L'informe es va fer fa 46 minuts, a les 04:00 UTC
Vent 9 kt del Sud/Sud-Est
Temperatura -3°C
Humitat 86%
Pressió 1019 hPa
Visibilitat: 14.5 km
Cel clar

METAR: CYAY 200400Z AUTO 15009KT 9SM CLR M03/M05 A3010 RMK SLP197

Hora: 02:16 (04:46 UTC)

Pronòstic

L'informe es va fer fa 3 hores i 6 minuts, a les 01:40 UTC
Pronòstic vàlid del 20 a les 02 UTC al 20 a les 14 UTC
Vent 3 kt amb direcció variable
Visibilitat: 10 km
Cel clar
Evolucionant progressivament
l' 20 a les 02 UTC al 20 a les 04 UTC
Vent 6 kt del Sud
A partir de les 20 a les 1300 UTC
Vent 10 kt del Sud/Sud-Oest amb ràfegues de 20 kt
Visibilitat: 10 km
Cel ennuvolat a una alçada de 16000 ft

TAF: CYAY 200140Z 2002/2014 VRB03KT P6SM SKC BECMG 2002/2004 17006KT FM201300 20010G20KT P6SM BKN160 RMK FCST BASED ON AUTO OBS. NXT FCST BY 200800Z

Observacions i pronòstics meteorològics de més de 4000 aeroports (METAR i TAF).

Les estacions disponibles són els punts grocs i vermells al mapa.

Posi el ratolí al punt desitjat per veure el nom de l'estació.

Feu clic per veure les observacions i els pronòstics meteorològics.

Per canviar el mapa: feu clic els botons verds amb una creu de color negre per apropar; al botó verd amb un guió per allunyar la imatge; o en les fletxes verdes per a mapes adjacents.


METAR-TAF: